Searsport, Maine
Current Conditions -  °F | °C
As of 7:53 PM on Friday 19 Dec 2014 (Local Time) from KBGR Reporting Station
Clear Clear  
Wind Chill: 18°   Ceiling: Unl
Heat Index: 24°   Visibility: 10mi
Dew Point: 20°   Wind: 5mph
Humidity: 84%   Direction: 300°WNW
Pressure: 30.06"   Gusts: NA
Location:  44.46°N, 68.92°W
Report Text: KBGR 200053Z 30004KT 10SM CLR M04/M07 A3006 RMK AO2 SLP183 T10441067
Loading
Personal Weather Stations






























Interactive Weather Map New forecast layout! Learn more

10-Day Weather Forecast

Advertisements
Track Severe Weather on mobile